EKAH/AAR METAR and TAF weather

Enter ICAO airport designator
Station Type Date Time Source
EKAH METAR 2018/04/21 20:50 UTC NOAA

EKAH 212050Z AUTO 24004KT 220V280 9999NDV NCD 07/02 Q1019


Station Type Date Time Source
EKAH Decoded METAR 2018/04/21 20:50 UTC NOAA

Tirstrup, Denmark (EKAH) 56-18N 010-37E 25M
Apr 21, 2018 - 04:50 PM EDT / 2018.04.21 2050 UTC
Wind: from the WSW (240 degrees) at 5 MPH (4 KT) (direction variable):0
Temperature: 44 F (7 C)
Dew Point: 35 F (2 C)
Relative Humidity: 70%
Pressure (altimeter): 30.09 in. Hg (1019 hPa)
ob: EKAH 212050Z AUTO 24004KT 220V280 9999NDV NCD 07/02 Q1019
cycle: 21

Station Type Date Time Source
EKAH TAF 2018/04/21 18:14 UTC NOAA

TAF EKAH 211703Z 2118/2218 30012KT CAVOK
TEMPO 2122/2206 1200 BR BKN003
BECMG 2206/2208 VRB03KT
BECMG 2212/2215 14010KT


Example: see airport list